首页
METAR-TAF:

METAR-TAF

机场 :

Mayo, 育康省, 加拿大

纬度: 63-37N, 经度: 135-52W, 海拔: 504米

当前天气观测

该预报发布于35分钟前的12:00 UTC
风速3节,风向西
温度 -2°C
湿度 80%
气压 1020 hPa
能見度: 32.2公里
少量云层高于8000英尺
散云层高于23000英尺

METAR: CYMA 191200Z 26003KT 20SM FEW080 SCT230 M02/M05 A3012 RMK AC2CI1 CLIMAT5.6/-2.8/0.0 SLP228

时间: 05:35 (12:35 UTC)

预报

该预报发布于57分钟前的11:38 UTC
预报有效从19日的 12点(UTC)到 19日的 24点(UTC)
风速5节,风向北转西北
能見度: 10公里
散云层高于10000英尺
散云层高于24000英尺

TAF: CYMA 191138Z 1912/1924 33005KT P6SM SCT100 SCT240 RMK NXT FCST BY 191800Z

超过4000个机场的气象观测和天气预报(METAR&TAF报告)。

可查询的气象台以黄色和红色小点在地图上表示。

将鼠标移到小点上方,可查看气象台名称。

然后点击查看天气观测和预报。

如需切换地图:点击带黑十字的绿色按钮放大地图;点击带横线的绿色按钮缩小地图;或者点击绿色箭头查看邻近地区的地图。


METAR-TAF: